sensor_id;sensor_type;location;lat;lon;timestamp;pressure;altitude;pressure_sealevel;temperature;humidity
50093;BME280;35974;47.752;10.290;2023-02-11T00:02:03;95605.66;;;-6.51;93.82
50093;BME280;35974;47.752;10.290;2023-02-11T00:04:30;95621.78;;;-6.29;92.44
50093;BME280;35974;47.752;10.290;2023-02-11T00:06:57;95602.09;;;-6.47;92.75
50093;BME280;35974;47.752;10.290;2023-02-11T00:09:23;95621.44;;;-6.41;93.38
50093;BME280;35974;47.752;10.290;2023-02-11T00:11:50;95598.91;;;-6.52;92.80
50093;BME280;35974;47.752;10.290;2023-02-11T00:14:16;95615.38;;;-6.39;92.71
50093;BME280;35974;47.752;10.290;2023-02-11T00:16:42;95606.25;;;-6.45;93.17
50093;BME280;35974;47.752;10.290;2023-02-11T00:19:09;95608.66;;;-6.64;94.44
50093;BME280;35974;47.752;10.290;2023-02-11T00:21:35;95606.44;;;-6.73;94.99
50093;BME280;35974;47.752;10.290;2023-02-11T00:24:02;95621.16;;;-6.57;95.55
50093;BME280;35974;47.752;10.290;2023-02-11T00:26:33;95631.25;;;-6.54;95.79
50093;BME280;35974;47.752;10.290;2023-02-11T00:29:01;95611.44;;;-6.70;95.29
50093;BME280;35974;47.752;10.290;2023-02-11T00:31:27;95638.09;;;-6.56;94.40
50093;BME280;35974;47.752;10.290;2023-02-11T00:33:55;95633.00;;;-6.56;94.48
50093;BME280;35974;47.752;10.290;2023-02-11T00:36:24;95594.84;;;-6.80;94.11
50093;BME280;35974;47.752;10.290;2023-02-11T00:38:52;95621.50;;;-6.67;94.41
50093;BME280;35974;47.752;10.290;2023-02-11T00:41:20;95605.03;;;-6.80;94.72
50093;BME280;35974;47.752;10.290;2023-02-11T00:43:47;95555.34;;;-7.14;94.16
50093;BME280;35974;47.752;10.290;2023-02-11T00:46:14;95601.09;;;-6.89;95.34
50093;BME280;35974;47.752;10.290;2023-02-11T00:48:40;95615.09;;;-6.77;94.47
50093;BME280;35974;47.752;10.290;2023-02-11T00:51:07;95586.88;;;-6.94;95.13
50093;BME280;35974;47.752;10.290;2023-02-11T00:53:34;95630.00;;;-6.68;95.09
50093;BME280;35974;47.752;10.290;2023-02-11T00:56:01;95580.25;;;-6.98;95.22
50093;BME280;35974;47.752;10.290;2023-02-11T00:58:27;95588.44;;;-6.90;94.81
50093;BME280;35974;47.752;10.290;2023-02-11T01:00:54;95613.31;;;-6.75;95.34
50093;BME280;35974;47.752;10.290;2023-02-11T01:03:21;95587.97;;;-6.78;94.81
50093;BME280;35974;47.752;10.290;2023-02-11T01:05:47;95590.84;;;-6.87;94.31
50093;BME280;35974;47.752;10.290;2023-02-11T01:08:14;95582.78;;;-6.98;95.53
50093;BME280;35974;47.752;10.290;2023-02-11T01:10:41;95590.28;;;-6.95;94.64
50093;BME280;35974;47.752;10.290;2023-02-11T01:13:09;95589.53;;;-6.97;95.00
50093;BME280;35974;47.752;10.290;2023-02-11T01:15:35;95602.34;;;-7.01;95.43
50093;BME280;35974;47.752;10.290;2023-02-11T01:18:03;95574.81;;;-7.13;95.23
50093;BME280;35974;47.752;10.290;2023-02-11T01:20:30;95602.97;;;-6.94;94.80
50093;BME280;35974;47.752;10.290;2023-02-11T01:22:57;95590.53;;;-7.02;95.16
50093;BME280;35974;47.752;10.290;2023-02-11T01:25:23;95567.50;;;-7.22;94.48
50093;BME280;35974;47.752;10.290;2023-02-11T01:27:50;95574.03;;;-7.15;94.81
50093;BME280;35974;47.752;10.290;2023-02-11T01:30:16;95567.41;;;-7.19;95.12
50093;BME280;35974;47.752;10.290;2023-02-11T01:32:42;95559.22;;;-7.27;94.36
50093;BME280;35974;47.752;10.290;2023-02-11T01:35:09;95579.66;;;-7.30;94.70
50093;BME280;35974;47.752;10.290;2023-02-11T01:37:36;95571.38;;;-7.36;95.11
50093;BME280;35974;47.752;10.290;2023-02-11T01:40:05;95579.66;;;-7.30;95.02
50093;BME280;35974;47.752;10.290;2023-02-11T01:42:32;95608.00;;;-7.16;94.64
50093;BME280;35974;47.752;10.290;2023-02-11T01:44:59;95600.69;;;-7.25;95.46
50093;BME280;35974;47.752;10.290;2023-02-11T01:47:27;95573.25;;;-7.41;95.25
50093;BME280;35974;47.752;10.290;2023-02-11T01:49:58;95540.31;;;-7.44;95.39
50093;BME280;35974;47.752;10.290;2023-02-11T01:52:32;95555.91;;;-7.29;95.73
50093;BME280;35974;47.752;10.290;2023-02-11T01:55:06;95554.91;;;-7.25;95.74
50093;BME280;35974;47.752;10.290;2023-02-11T01:57:54;95580.25;;;-6.98;95.53
50093;BME280;35974;47.752;10.290;2023-02-11T02:00:33;95565.72;;;-7.20;96.42
50093;BME280;35974;47.752;10.290;2023-02-11T02:03:31;95585.56;;;-7.05;97.18
50093;BME280;35974;47.752;10.290;2023-02-11T02:06:06;95580.56;;;-7.08;95.53
50093;BME280;35974;47.752;10.290;2023-02-11T02:08:50;95586.84;;;-7.18;96.74
50093;BME280;35974;47.752;10.290;2023-02-11T02:11:18;95561.00;;;-7.29;98.13
50093;BME280;35974;47.752;10.290;2023-02-11T02:13:45;95577.47;;;-7.16;97.77
50093;BME280;35974;47.752;10.290;2023-02-11T02:16:14;95584.19;;;-7.15;97.96
50093;BME280;35974;47.752;10.290;2023-02-11T02:29:56;95569.84;;;-7.16;97.49
50093;BME280;35974;47.752;10.290;2023-02-11T02:35:29;95520.63;;;-7.39;97.11
50093;BME280;35974;47.752;10.290;2023-02-11T02:38:07;95527.25;;;-7.34;96.30
50093;BME280;35974;47.752;10.290;2023-02-11T02:40:46;95554.13;;;-7.27;97.04
50093;BME280;35974;47.752;10.290;2023-02-11T02:43:14;95552.34;;;-7.25;96.39
50093;BME280;35974;47.752;10.290;2023-02-11T02:45:40;95551.69;;;-7.30;96.32
50093;BME280;35974;47.752;10.290;2023-02-11T02:48:31;95495.97;;;-7.60;96.81
50093;BME280;35974;47.752;10.290;2023-02-11T02:56:47;95534.50;;;-7.24;96.37
50093;BME280;35974;47.752;10.290;2023-02-11T02:59:35;95547.28;;;-7.25;97.08
50093;BME280;35974;47.752;10.290;2023-02-11T03:07:57;95544.47;;;-7.43;97.50
50093;BME280;35974;47.752;10.290;2023-02-11T03:10:28;95540.84;;;-7.36;98.01
50093;BME280;35974;47.752;10.290;2023-02-11T03:12:56;95494.72;;;-7.74;97.52
50093;BME280;35974;47.752;10.290;2023-02-11T03:15:25;95538.97;;;-7.30;97.79
50093;BME280;35974;47.752;10.290;2023-02-11T03:17:55;95515.75;;;-7.45;97.97
50093;BME280;35974;47.752;10.290;2023-02-11T03:20:23;95522.72;;;-7.50;97.97
50093;BME280;35974;47.752;10.290;2023-02-11T03:22:57;95522.91;;;-7.56;98.43
50093;BME280;35974;47.752;10.290;2023-02-11T03:25:34;95530.69;;;-7.36;98.19
50093;BME280;35974;47.752;10.290;2023-02-11T03:28:20;95493.63;;;-7.43;97.19
50093;BME280;35974;47.752;10.290;2023-02-11T03:31:05;95498.94;;;-7.49;98.01
50093;BME280;35974;47.752;10.290;2023-02-11T03:33:45;95544.28;;;-7.37;98.39
50093;BME280;35974;47.752;10.290;2023-02-11T03:36:21;95523.59;;;-7.51;97.12
50093;BME280;35974;47.752;10.290;2023-02-11T03:38:49;95546.16;;;-7.42;97.04
50093;BME280;35974;47.752;10.290;2023-02-11T03:41:20;95509.84;;;-7.45;95.95
50093;BME280;35974;47.752;10.290;2023-02-11T03:43:52;95544.47;;;-7.43;96.79
50093;BME280;35974;47.752;10.290;2023-02-11T03:46:22;95524.34;;;-7.49;97.64
50093;BME280;35974;47.752;10.290;2023-02-11T03:48:54;95526.84;;;-7.47;96.39
50093;BME280;35974;47.752;10.290;2023-02-11T03:51:23;95500.34;;;-7.65;97.53
50093;BME280;35974;47.752;10.290;2023-02-11T03:53:54;95505.38;;;-7.39;97.21
50093;BME280;35974;47.752;10.290;2023-02-11T03:56:25;95503.78;;;-7.43;97.16
50093;BME280;35974;47.752;10.290;2023-02-11T03:58:52;95477.16;;;-7.56;96.88
50093;BME280;35974;47.752;10.290;2023-02-11T04:01:19;95472.38;;;-7.65;97.58
50093;BME280;35974;47.752;10.290;2023-02-11T04:03:45;95477.97;;;-7.56;97.53
50093;BME280;35974;47.752;10.290;2023-02-11T04:06:12;95497.19;;;-7.47;96.87
50093;BME280;35974;47.752;10.290;2023-02-11T04:08:38;95485.06;;;-7.64;97.14
50093;BME280;35974;47.752;10.290;2023-02-11T04:11:05;95506.56;;;-7.49;97.12
50093;BME280;35974;47.752;10.290;2023-02-11T04:13:31;95489.53;;;-7.70;96.26
50093;BME280;35974;47.752;10.290;2023-02-11T04:15:58;95513.53;;;-7.54;96.62
50093;BME280;35974;47.752;10.290;2023-02-11T04:18:24;95487.19;;;-7.77;95.65
50093;BME280;35974;47.752;10.290;2023-02-11T04:20:51;95496.47;;;-7.76;96.57
50093;BME280;35974;47.752;10.290;2023-02-11T04:23:17;95505.44;;;-7.65;96.51
50093;BME280;35974;47.752;10.290;2023-02-11T04:25:43;95509.00;;;-7.46;95.64
50093;BME280;35974;47.752;10.290;2023-02-11T04:28:10;95497.00;;;-7.66;96.13
50093;BME280;35974;47.752;10.290;2023-02-11T04:30:36;95481.22;;;-7.76;96.74
50093;BME280;35974;47.752;10.290;2023-02-11T04:33:03;95500.91;;;-7.57;98.14
50093;BME280;35974;47.752;10.290;2023-02-11T04:35:29;95512.09;;;-7.38;96.99
50093;BME280;35974;47.752;10.290;2023-02-11T04:37:55;95500.50;;;-7.45;97.02
50093;BME280;35974;47.752;10.290;2023-02-11T04:40:22;95493.22;;;-7.56;97.66
50093;BME280;35974;47.752;10.290;2023-02-11T04:42:49;95494.19;;;-7.58;97.45
50093;BME280;35974;47.752;10.290;2023-02-11T04:45:15;95497.50;;;-7.56;97.82
50093;BME280;35974;47.752;10.290;2023-02-11T04:47:41;95510.22;;;-7.56;99.08
50093;BME280;35974;47.752;10.290;2023-02-11T04:50:08;95527.25;;;-7.34;99.06
50093;BME280;35974;47.752;10.290;2023-02-11T04:52:35;95507.34;;;-7.47;98.04
50093;BME280;35974;47.752;10.290;2023-02-11T04:55:01;95535.09;;;-7.17;98.58
50093;BME280;35974;47.752;10.290;2023-02-11T04:57:28;95535.22;;;-7.20;98.41
50093;BME280;35974;47.752;10.290;2023-02-11T04:59:54;95524.94;;;-7.17;97.90
50093;BME280;35974;47.752;10.290;2023-02-11T05:02:21;95545.06;;;-7.11;98.95
50093;BME280;35974;47.752;10.290;2023-02-11T05:04:47;95529.78;;;-7.11;99.16
50093;BME280;35974;47.752;10.290;2023-02-11T05:07:13;95509.38;;;-7.33;99.17
50093;BME280;35974;47.752;10.290;2023-02-11T05:09:40;95526.59;;;-7.16;99.44
50093;BME280;35974;47.752;10.290;2023-02-11T05:12:07;95521.72;;;-7.22;99.01
50093;BME280;35974;47.752;10.290;2023-02-11T05:14:33;95521.72;;;-7.22;99.41
50093;BME280;35974;47.752;10.290;2023-02-11T05:17:00;95522.59;;;-7.23;99.32
50093;BME280;35974;47.752;10.290;2023-02-11T05:19:26;95519.28;;;-7.02;97.92
50093;BME280;35974;47.752;10.290;2023-02-11T05:21:53;95517.81;;;-6.85;97.48
50093;BME280;35974;47.752;10.290;2023-02-11T05:24:30;95513.50;;;-6.83;98.35
50093;BME280;35974;47.752;10.290;2023-02-11T05:26:56;95513.72;;;-6.89;99.00
50093;BME280;35974;47.752;10.290;2023-02-11T05:29:23;95523.56;;;-6.80;98.94
50093;BME280;35974;47.752;10.290;2023-02-11T05:31:49;95516.81;;;-6.81;98.30
50093;BME280;35974;47.752;10.290;2023-02-11T05:34:15;95494.44;;;-6.95;98.12
50093;BME280;35974;47.752;10.290;2023-02-11T05:36:42;95454.78;;;-7.01;97.45
50093;BME280;35974;47.752;10.290;2023-02-11T05:39:08;95459.22;;;-7.06;98.32
50093;BME280;35974;47.752;10.290;2023-02-11T05:41:35;95498.47;;;-6.67;97.91
50093;BME280;35974;47.752;10.290;2023-02-11T05:44:01;95481.28;;;-6.84;98.35
50093;BME280;35974;47.752;10.290;2023-02-11T05:46:27;95519.19;;;-6.54;98.02
50093;BME280;35974;47.752;10.290;2023-02-11T05:48:54;95503.69;;;-6.70;97.90
50093;BME280;35974;47.752;10.290;2023-02-11T05:51:22;95510.41;;;-6.25;95.92
50093;BME280;35974;47.752;10.290;2023-02-11T05:53:50;95530.19;;;-6.32;96.68
50093;BME280;35974;47.752;10.290;2023-02-11T05:56:16;95506.59;;;-6.37;95.99
50093;BME280;35974;47.752;10.290;2023-02-11T05:58:43;95513.38;;;-6.36;95.54
50093;BME280;35974;47.752;10.290;2023-02-11T06:01:09;95512.66;;;-6.62;97.33
50093;BME280;35974;47.752;10.290;2023-02-11T06:03:36;95520.59;;;-6.47;97.49
50093;BME280;35974;47.752;10.290;2023-02-11T06:06:02;95538.50;;;-6.27;97.49
50093;BME280;35974;47.752;10.290;2023-02-11T06:08:29;95529.78;;;-6.43;99.00
50093;BME280;35974;47.752;10.290;2023-02-11T06:10:55;95520.72;;;-6.50;99.46
50093;BME280;35974;47.752;10.290;2023-02-11T06:13:22;95519.91;;;-6.29;98.92
50093;BME280;35974;47.752;10.290;2023-02-11T06:15:56;95526.63;;;-6.28;98.86
50093;BME280;35974;47.752;10.290;2023-02-11T06:18:22;95540.34;;;-6.10;99.74
50093;BME280;35974;47.752;10.290;2023-02-11T06:20:49;95506.59;;;-6.15;99.11
50093;BME280;35974;47.752;10.290;2023-02-11T06:23:15;95532.13;;;-5.96;99.23
50093;BME280;35974;47.752;10.290;2023-02-11T06:25:42;95532.00;;;-5.93;99.45
50093;BME280;35974;47.752;10.290;2023-02-11T06:28:08;95533.78;;;-5.74;99.85
50093;BME280;35974;47.752;10.290;2023-02-11T06:30:36;95505.13;;;-6.00;99.48
50093;BME280;35974;47.752;10.290;2023-02-11T06:33:03;95526.63;;;-5.66;99.25
50093;BME280;35974;47.752;10.290;2023-02-11T06:35:30;95518.06;;;-5.44;98.13
50093;BME280;35974;47.752;10.290;2023-02-11T06:38:04;95479.31;;;-5.53;96.89
50093;BME280;35974;47.752;10.290;2023-02-11T06:40:30;95462.50;;;-5.57;97.19
50093;BME280;35974;47.752;10.290;2023-02-11T06:42:57;95498.84;;;-5.32;97.81
50093;BME280;35974;47.752;10.290;2023-02-11T06:45:23;95495.31;;;-5.30;97.43
50093;BME280;35974;47.752;10.290;2023-02-11T06:47:50;95504.44;;;-5.05;95.88
50093;BME280;35974;47.752;10.290;2023-02-11T06:50:28;95467.34;;;-5.12;95.03
50093;BME280;35974;47.752;10.290;2023-02-11T06:52:54;95461.13;;;-5.26;95.57
50093;BME280;35974;47.752;10.290;2023-02-11T06:55:20;95448.84;;;-5.18;95.84
50093;BME280;35974;47.752;10.290;2023-02-11T06:57:47;95426.09;;;-5.41;96.23
50093;BME280;35974;47.752;10.290;2023-02-11T07:00:13;95457.00;;;-5.09;95.42
50093;BME280;35974;47.752;10.290;2023-02-11T07:02:40;95457.00;;;-5.09;95.05
50093;BME280;35974;47.752;10.290;2023-02-11T07:05:07;95455.19;;;-5.07;95.28
50093;BME280;35974;47.752;10.290;2023-02-11T07:07:34;95482.13;;;-5.00;94.27
50093;BME280;35974;47.752;10.290;2023-02-11T07:10:01;95515.34;;;-4.83;94.82
50093;BME280;35974;47.752;10.290;2023-02-11T07:12:31;95493.81;;;-4.96;94.51
50093;BME280;35974;47.752;10.290;2023-02-11T07:14:57;95521.03;;;-4.95;94.21
50093;BME280;35974;47.752;10.290;2023-02-11T07:17:24;95492.09;;;-5.15;94.20
50093;BME280;35974;47.752;10.290;2023-02-11T07:19:51;95518.94;;;-4.87;93.62
50093;BME280;35974;47.752;10.290;2023-02-11T07:22:18;95545.97;;;-4.64;93.59
50093;BME280;35974;47.752;10.290;2023-02-11T07:24:44;95542.41;;;-4.79;94.32
50093;BME280;35974;47.752;10.290;2023-02-11T07:27:21;95533.34;;;-4.86;94.86
50093;BME280;35974;47.752;10.290;2023-02-11T07:29:48;95527.84;;;-4.76;95.38
50093;BME280;35974;47.752;10.290;2023-02-11T07:32:14;95492.16;;;-4.78;94.36
50093;BME280;35974;47.752;10.290;2023-02-11T07:34:54;95529.25;;;-4.52;94.70
50093;BME280;35974;47.752;10.290;2023-02-11T07:37:21;95503.63;;;-4.68;95.11
50093;BME280;35974;47.752;10.290;2023-02-11T07:39:47;95528.97;;;-4.46;95.27
50093;BME280;35974;47.752;10.290;2023-02-11T07:42:13;95522.06;;;-4.44;93.95
50093;BME280;35974;47.752;10.290;2023-02-11T07:44:40;95490.78;;;-4.49;94.05
50093;BME280;35974;47.752;10.290;2023-02-11T07:47:06;95500.72;;;-4.43;94.10
50093;BME280;35974;47.752;10.290;2023-02-11T07:49:33;95505.59;;;-4.19;94.18
50093;BME280;35974;47.752;10.290;2023-02-11T07:51:59;95510.38;;;-4.13;93.56
50093;BME280;35974;47.752;10.290;2023-02-11T07:54:25;95490.69;;;-4.28;94.36
50093;BME280;35974;47.752;10.290;2023-02-11T07:57:00;95512.50;;;-4.03;94.12
50093;BME280;35974;47.752;10.290;2023-02-11T07:59:26;95517.31;;;-3.97;93.96
50093;BME280;35974;47.752;10.290;2023-02-11T08:01:53;95537.94;;;-3.83;93.20
50093;BME280;35974;47.752;10.290;2023-02-11T08:04:19;95559.16;;;-3.63;90.50
50093;BME280;35974;47.752;10.290;2023-02-11T08:06:46;95552.38;;;-3.64;91.19
50093;BME280;35974;47.752;10.290;2023-02-11T08:09:15;95529.03;;;-3.41;89.85
50093;BME280;35974;47.752;10.290;2023-02-11T08:11:49;95506.56;;;-3.36;86.66
50093;BME280;35974;47.752;10.290;2023-02-11T08:14:15;95512.47;;;-3.51;86.98
50093;BME280;35974;47.752;10.290;2023-02-11T08:16:42;95529.63;;;-3.53;88.26
50093;BME280;35974;47.752;10.290;2023-02-11T08:19:14;95548.13;;;-3.48;87.84
50093;BME280;35974;47.752;10.290;2023-02-11T08:21:56;95545.84;;;-3.37;87.83
50093;BME280;35974;47.752;10.290;2023-02-11T08:24:22;95500.88;;;-3.58;87.85
50093;BME280;35974;47.752;10.290;2023-02-11T08:26:49;95522.38;;;-3.45;88.18
50093;BME280;35974;47.752;10.290;2023-02-11T08:29:16;95515.00;;;-3.34;88.32
50093;BME280;35974;47.752;10.290;2023-02-11T08:31:45;95471.72;;;-3.38;87.96
50093;BME280;35974;47.752;10.290;2023-02-11T08:34:16;95463.47;;;-3.27;88.77
50093;BME280;35974;47.752;10.290;2023-02-11T08:36:47;95537.56;;;-2.75;87.59
50093;BME280;35974;47.752;10.290;2023-02-11T08:39:16;95530.84;;;-2.62;87.65
50093;BME280;35974;47.752;10.290;2023-02-11T08:41:47;95543.69;;;-2.46;87.21
50093;BME280;35974;47.752;10.290;2023-02-11T08:44:14;95525.66;;;-2.76;86.41
50093;BME280;35974;47.752;10.290;2023-02-11T08:46:41;95539.41;;;-2.45;85.85
50093;BME280;35974;47.752;10.290;2023-02-11T08:49:07;95486.22;;;-2.58;86.04
50093;BME280;35974;47.752;10.290;2023-02-11T08:51:33;95515.19;;;-2.09;85.60
50093;BME280;35974;47.752;10.290;2023-02-11T08:54:00;95501.19;;;-2.04;84.54
50093;BME280;35974;47.752;10.290;2023-02-11T08:56:27;95492.00;;;-1.77;82.51
50093;BME280;35974;47.752;10.290;2023-02-11T08:58:53;95491.31;;;-1.51;81.69
50093;BME280;35974;47.752;10.290;2023-02-11T09:01:26;95517.19;;;-1.25;81.18
50093;BME280;35974;47.752;10.290;2023-02-11T09:03:53;95518.81;;;-1.53;82.72
50093;BME280;35974;47.752;10.290;2023-02-11T09:06:21;95520.50;;;-1.23;81.20
50093;BME280;35974;47.752;10.290;2023-02-11T09:08:50;95521.28;;;-1.51;81.90
50093;BME280;35974;47.752;10.290;2023-02-11T09:11:20;95514.06;;;-1.30;80.56
50093;BME280;35974;47.752;10.290;2023-02-11T09:13:47;95483.69;;;-1.52;81.64
50093;BME280;35974;47.752;10.290;2023-02-11T09:16:16;95532.03;;;-1.16;81.45
50093;BME280;35974;47.752;10.290;2023-02-11T09:18:43;95514.81;;;-1.14;80.65
50093;BME280;35974;47.752;10.290;2023-02-11T09:21:11;95525.63;;;-0.94;81.17
50093;BME280;35974;47.752;10.290;2023-02-11T09:23:38;95491.66;;;-0.99;80.25
50093;BME280;35974;47.752;10.290;2023-02-11T09:26:09;95492.41;;;-0.97;79.92
50093;BME280;35974;47.752;10.290;2023-02-11T09:28:35;95524.13;;;-0.69;80.02
50093;BME280;35974;47.752;10.290;2023-02-11T09:31:07;95541.94;;;-0.52;77.69
50093;BME280;35974;47.752;10.290;2023-02-11T09:33:34;95525.47;;;-0.49;77.20
50093;BME280;35974;47.752;10.290;2023-02-11T09:36:04;95541.66;;;-0.20;76.36
50093;BME280;35974;47.752;10.290;2023-02-11T09:38:31;95514.88;;;-0.30;75.70
50093;BME280;35974;47.752;10.290;2023-02-11T09:40:58;95513.50;;;-0.09;75.19
50093;BME280;35974;47.752;10.290;2023-02-11T09:43:52;95530.38;;;0.35;74.48
50093;BME280;35974;47.752;10.290;2023-02-11T09:46:20;95496.06;;;0.22;73.98
50093;BME280;35974;47.752;10.290;2023-02-11T09:48:48;95514.94;;;0.35;73.84
50093;BME280;35974;47.752;10.290;2023-02-11T09:51:40;95518.78;;;0.56;73.89
50093;BME280;35974;47.752;10.290;2023-02-11T09:54:14;95510.13;;;0.69;73.41
50093;BME280;35974;47.752;10.290;2023-02-11T09:56:43;95481.88;;;0.94;71.10
50093;BME280;35974;47.752;10.290;2023-02-11T09:59:13;95509.09;;;0.85;72.40
